Time;durP1;ratioP1;P1;durP2;ratioP2;P2;SDS_P1;SDS_P2;PMS_P1;PMS_P2;Temp;Humidity;BMP_temperature;BMP_pressure;BME280_temperature;BME280_humidity;BME280_pressure;Samples;Min_cycle;Max_cycle;Signal;HPM_P1;HPM_P2
2023/08/23 00:00:27;;;;;;;5.50;2.70;;;16.50;99.90;;;;;;5057906;28;20453;-76
2023/08/23 00:02:53;;;;;;;5.55;3.10;;;16.30;99.90;;;;;;5074203;28;20071;-77
2023/08/23 00:05:18;;;;;;;5.75;2.80;;;16.30;99.90;;;;;;5057506;28;20060;-77
2023/08/23 00:07:44;;;;;;;4.53;2.40;;;16.30;99.90;;;;;;5056194;28;20040;-78
2023/08/23 00:10:10;;;;;;;3.92;2.25;;;16.30;99.90;;;;;;5057930;28;20029;-77
2023/08/23 00:12:35;;;;;;;4.22;2.05;;;16.20;99.90;;;;;;5073804;28;20049;-77
2023/08/23 00:15:01;;;;;;;5.75;2.53;;;16.20;99.90;;;;;;5072943;28;20025;-77
2023/08/23 00:17:26;;;;;;;5.32;2.50;;;16.20;99.90;;;;;;5047350;28;20485;-76
2023/08/23 00:19:53;;;;;;;4.88;2.53;;;16.20;99.90;;;;;;5036059;28;20037;-77
2023/08/23 00:22:19;;;;;;;5.82;2.67;;;16.20;99.90;;;;;;5053808;28;20051;-76
2023/08/23 00:24:44;;;;;;;5.05;2.50;;;16.20;99.90;;;;;;5037261;28;20045;-76
2023/08/23 00:27:10;;;;;;;3.72;2.15;;;16.10;99.90;;;;;;5037173;28;20056;-77
2023/08/23 00:29:37;;;;;;;4.25;2.30;;;16.00;99.90;;;;;;5052652;28;20045;-78
2023/08/23 00:32:03;;;;;;;6.10;3.15;;;16.00;99.90;;;;;;5052603;28;20072;-79
2023/08/23 00:34:28;;;;;;;8.75;4.78;;;15.80;99.90;;;;;;5036762;28;20079;-77
2023/08/23 00:36:54;;;;;;;8.32;4.47;;;15.70;99.90;;;;;;5033024;28;20038;-78
2023/08/23 00:39:19;;;;;;;7.45;4.30;;;15.60;99.90;;;;;;5052580;28;20033;-77
2023/08/23 00:41:45;;;;;;;6.78;4.50;;;15.60;99.90;;;;;;5065746;28;20086;-77
2023/08/23 00:44:11;;;;;;;6.78;4.13;;;15.60;99.90;;;;;;5033762;28;20508;-78
2023/08/23 00:46:36;;;;;;;8.15;4.38;;;15.60;99.90;;;;;;5056267;28;20171;-77
2023/08/23 00:49:02;;;;;;;6.88;3.65;;;15.60;99.90;;;;;;5047761;28;20489;-77
2023/08/23 00:51:29;;;;;;;5.70;3.17;;;15.70;99.90;;;;;;5051714;28;20481;-76
2023/08/23 00:53:54;;;;;;;5.10;2.95;;;15.70;99.90;;;;;;5034112;28;20047;-76
2023/08/23 00:56:20;;;;;;;5.35;3.00;;;15.70;99.90;;;;;;5048058;28;20493;-77
2023/08/23 00:58:46;;;;;;;5.57;3.00;;;15.70;99.90;;;;;;5035672;28;20141;-77
2023/08/23 01:01:11;;;;;;;7.28;3.58;;;15.70;99.90;;;;;;5068940;28;20033;-77
2023/08/23 01:03:37;;;;;;;7.80;4.15;;;15.70;99.90;;;;;;5060039;28;20040;-77
2023/08/23 01:06:13;;;;;;;6.63;4.03;;;15.60;99.90;;;;;;5046494;28;20055;-77
2023/08/23 01:09:09;;;;;;;7.13;4.30;;;15.70;99.90;;;;;;5041271;28;20442;-77
2023/08/23 01:11:56;;;;;;;7.68;5.13;;;15.70;99.90;;;;;;5068752;28;20081;-77
2023/08/23 01:14:53;;;;;;;7.82;4.95;;;15.70;99.90;;;;;;5048939;28;20036;-77
2023/08/23 01:17:20;;;;;;;6.53;4.13;;;15.70;99.90;;;;;;5061526;28;20032;-78
2023/08/23 01:19:47;;;;;;;6.05;2.85;;;15.70;99.90;;;;;;5052105;28;20033;-77
2023/08/23 01:22:17;;;;;;;4.47;2.70;;;15.70;99.90;;;;;;5068526;28;20048;-77
2023/08/23 01:24:44;;;;;;;4.05;2.42;;;15.70;99.90;;;;;;5036473;28;20751;-77
2023/08/23 01:27:09;;;;;;;2.90;1.90;;;15.70;99.90;;;;;;5053798;28;20421;-78
2023/08/23 01:29:35;;;;;;;2.05;1.40;;;15.70;99.90;;;;;;5045986;28;20033;-77
2023/08/23 01:32:09;;;;;;;2.95;1.40;;;15.70;99.90;;;;;;5051104;28;20041;-77
2023/08/23 01:34:38;;;;;;;3.17;1.50;;;15.70;99.90;;;;;;5040420;28;20119;-78
2023/08/23 01:37:07;;;;;;;2.60;1.50;;;15.60;99.90;;;;;;5034876;28;20421;-77
2023/08/23 01:39:33;;;;;;;4.85;2.50;;;15.50;99.90;;;;;;5054921;28;20101;-77
2023/08/23 01:42:00;;;;;;;4.80;2.78;;;15.50;99.90;;;;;;5065045;28;20574;-78
2023/08/23 01:44:25;;;;;;;4.65;2.67;;;15.50;99.90;;;;;;5071074;28;20071;-77
2023/08/23 01:46:51;;;;;;;5.03;2.60;;;15.50;99.90;;;;;;5060868;28;20040;-78
2023/08/23 01:49:16;;;;;;;5.38;2.63;;;15.50;99.90;;;;;;5054415;28;20047;-77
2023/08/23 01:51:42;;;;;;;4.72;2.38;;;15.50;99.90;;;;;;5052893;28;20441;-78
2023/08/23 01:54:07;;;;;;;5.25;2.55;;;15.50;99.90;;;;;;5067874;28;20035;-78
2023/08/23 01:56:33;;;;;;;5.13;2.70;;;15.50;99.90;;;;;;5045418;28;20040;-78
2023/08/23 01:58:59;;;;;;;4.72;2.60;;;15.40;99.90;;;;;;5037872;28;20039;-78
2023/08/23 02:01:24;;;;;;;6.43;2.80;;;15.40;99.90;;;;;;5040409;28;20509;-77
2023/08/23 02:03:50;;;;;;;4.57;2.60;;;15.30;99.90;;;;;;5027975;28;20033;-78
2023/08/23 02:06:15;;;;;;;3.50;2.38;;;15.40;99.90;;;;;;5030577;28;20041;-77
2023/08/23 02:08:41;;;;;;;3.33;2.15;;;15.40;99.90;;;;;;5050637;28;20127;-76
2023/08/23 02:11:06;;;;;;;4.28;2.70;;;15.40;99.90;;;;;;5052791;28;20047;-77
2023/08/23 02:13:32;;;;;;;4.18;2.55;;;15.40;99.90;;;;;;5071560;28;20450;-77
2023/08/23 02:15:57;;;;;;;4.13;2.60;;;15.40;99.90;;;;;;5053371;28;20033;-78
2023/08/23 02:18:23;;;;;;;3.88;2.30;;;15.50;99.90;;;;;;5046427;28;20044;-78
2023/08/23 02:20:57;;;;;;;3.55;2.38;;;15.30;99.90;;;;;;5055277;28;20041;-77
2023/08/23 02:23:22;;;;;;;3.85;2.50;;;15.30;99.90;;;;;;5084084;28;20045;-77
2023/08/23 02:25:48;;;;;;;5.80;2.80;;;15.30;99.90;;;;;;5069132;28;20068;-77
2023/08/23 02:28:13;;;;;;;4.43;2.72;;;15.30;99.90;;;;;;5037526;28;20519;-77
2023/08/23 02:30:39;;;;;;;4.75;2.60;;;15.30;99.90;;;;;;5043774;28;20151;-77
2023/08/23 02:33:05;;;;;;;4.07;2.30;;;15.30;99.90;;;;;;5059622;28;20133;-77
2023/08/23 02:35:30;;;;;;;3.65;2.47;;;15.40;99.90;;;;;;5035247;28;20041;-77
2023/08/23 02:37:57;;;;;;;4.88;2.80;;;15.30;99.90;;;;;;5038744;28;20033;-77
2023/08/23 02:40:23;;;;;;;4.82;3.03;;;15.30;99.90;;;;;;5064436;28;20506;-78
2023/08/23 02:42:49;;;;;;;4.60;2.80;;;15.40;99.90;;;;;;5062023;28;20151;-77
2023/08/23 02:45:14;;;;;;;5.88;3.47;;;15.30;99.90;;;;;;5067876;28;20047;-77
2023/08/23 02:47:40;;;;;;;4.35;2.80;;;15.30;99.90;;;;;;5046710;28;20044;-77
2023/08/23 02:50:06;;;;;;;4.38;2.72;;;15.20;99.90;;;;;;5046871;28;20043;-77
2023/08/23 02:52:31;;;;;;;5.18;2.80;;;15.20;99.90;;;;;;5066021;28;20099;-77
2023/08/23 02:54:57;;;;;;;5.70;3.15;;;15.20;99.90;;;;;;5064827;28;20066;-77
2023/08/23 02:57:22;;;;;;;5.13;3.10;;;15.10;99.90;;;;;;5043875;28;20532;-77
2023/08/23 02:59:48;;;;;;;5.03;3.03;;;15.20;99.90;;;;;;5070493;28;20123;-77
2023/08/23 03:02:13;;;;;;;4.68;2.92;;;15.20;99.90;;;;;;5037513;28;20040;-78
2023/08/23 03:04:39;;;;;;;4.68;2.92;;;15.20;99.90;;;;;;5052514;28;20037;-77
2023/08/23 03:07:05;;;;;;;4.50;2.92;;;15.20;99.90;;;;;;5030624;28;20099;-78
2023/08/23 03:09:30;;;;;;;4.88;3.22;;;15.20;99.90;;;;;;5033137;28;20493;-77
2023/08/23 03:11:56;;;;;;;5.60;3.10;;;15.20;99.90;;;;;;5057828;28;20075;-77
2023/08/23 03:14:21;;;;;;;4.93;2.75;;;15.20;99.90;;;;;;5048596;28;20038;-77
2023/08/23 03:16:47;;;;;;;4.75;2.63;;;15.10;99.90;;;;;;5059215;28;20082;-78
2023/08/23 03:19:12;;;;;;;5.07;2.90;;;15.00;99.90;;;;;;5051807;28;20119;-77
2023/08/23 03:21:38;;;;;;;4.95;3.15;;;15.00;99.90;;;;;;5050493;28;20037;-77
2023/08/23 03:24:03;;;;;;;4.55;3.10;;;15.00;99.90;;;;;;5052757;28;20048;-77
2023/08/23 03:26:29;;;;;;;4.55;2.97;;;15.00;99.90;;;;;;5048436;28;20577;-77
2023/08/23 03:28:54;;;;;;;6.57;3.55;;;14.90;99.90;;;;;;5057625;28;20037;-77
2023/08/23 03:31:20;;;;;;;5.35;3.40;;;15.00;99.90;;;;;;5056341;28;20069;-77
2023/08/23 03:33:46;;;;;;;4.85;3.17;;;15.00;99.90;;;;;;5055463;28;20547;-78
2023/08/23 03:36:11;;;;;;;5.40;3.55;;;15.10;99.90;;;;;;5043068;28;20113;-78
2023/08/23 03:38:37;;;;;;;4.95;3.13;;;15.10;99.90;;;;;;5074690;28;20040;-78
2023/08/23 03:41:02;;;;;;;5.65;3.38;;;15.10;99.90;;;;;;5055765;28;20043;-78
2023/08/23 03:43:29;;;;;;;5.45;3.45;;;15.10;99.90;;;;;;5050857;28;20513;-78
2023/08/23 03:45:54;;;;;;;6.40;3.50;;;15.20;99.90;;;;;;5050932;28;20585;-77
2023/08/23 03:48:20;;;;;;;5.45;3.35;;;15.10;99.90;;;;;;5028189;28;20057;-77
2023/08/23 03:50:46;;;;;;;6.70;4.05;;;15.10;99.90;;;;;;5055408;28;20065;-77
2023/08/23 03:53:11;;;;;;;5.63;3.75;;;15.00;99.90;;;;;;5056387;28;20051;-77
2023/08/23 03:55:37;;;;;;;5.38;3.63;;;15.00;99.90;;;;;;5056317;28;20114;-77
2023/08/23 03:58:04;;;;;;;6.78;4.13;;;15.00;99.90;;;;;;5071208;28;20427;-77
2023/08/23 04:00:30;;;;;;;7.10;4.45;;;15.10;99.90;;;;;;5064509;28;20029;-77
2023/08/23 04:02:55;;;;;;;7.25;4.43;;;15.10;99.90;;;;;;5063841;28;20042;-77
2023/08/23 04:05:21;;;;;;;6.68;4.30;;;15.20;99.90;;;;;;5049259;28;20405;-77
2023/08/23 04:07:46;;;;;;;6.57;4.18;;;15.20;99.90;;;;;;5054162;28;20072;-77
2023/08/23 04:10:12;;;;;;;6.05;4.03;;;15.20;99.90;;;;;;5069675;28;20044;-77
2023/08/23 04:12:38;;;;;;;6.28;4.28;;;15.30;99.90;;;;;;5064602;28;20437;-77
2023/08/23 04:15:04;;;;;;;7.40;4.72;;;15.30;99.90;;;;;;5063186;28;20061;-77
2023/08/23 04:17:29;;;;;;;7.10;4.68;;;15.20;99.90;;;;;;5051806;28;20041;-77
2023/08/23 04:19:55;;;;;;;7.32;4.75;;;15.20;99.90;;;;;;5025981;28;20037;-78
2023/08/23 04:22:20;;;;;;;7.60;4.90;;;15.30;99.90;;;;;;5061556;28;20040;-77
2023/08/23 04:24:46;;;;;;;7.25;5.03;;;15.40;99.90;;;;;;5071751;28;20055;-77
2023/08/23 04:27:12;;;;;;;8.40;5.00;;;15.40;99.90;;;;;;5056305;28;20153;-78
2023/08/23 04:29:37;;;;;;;7.53;5.32;;;15.20;99.90;;;;;;5054693;28;20048;-78
2023/08/23 04:32:09;;;;;;;7.57;5.38;;;15.10;99.90;;;;;;5072670;28;20127;-78
2023/08/23 04:34:34;;;;;;;7.13;4.90;;;15.10;99.90;;;;;;5066579;28;20047;-78
2023/08/23 04:37:00;;;;;;;7.32;5.25;;;15.10;99.90;;;;;;5058375;28;20033;-78
2023/08/23 04:39:25;;;;;;;7.70;5.40;;;15.20;99.90;;;;;;5071200;28;20040;-78
2023/08/23 04:41:51;;;;;;;7.53;4.70;;;15.20;99.90;;;;;;5064174;28;20048;-78
2023/08/23 04:44:16;;;;;;;6.68;4.57;;;15.20;99.90;;;;;;5066230;28;20040;-78
2023/08/23 04:46:42;;;;;;;6.53;4.75;;;15.40;99.90;;;;;;5039701;28;20123;-77
2023/08/23 04:49:08;;;;;;;7.00;4.75;;;15.40;99.90;;;;;;5044780;28;20552;-78
2023/08/23 04:51:33;;;;;;;6.50;4.55;;;15.40;99.90;;;;;;5049390;28;20045;-78
2023/08/23 04:53:59;;;;;;;7.30;5.05;;;15.40;99.90;;;;;;5051967;28;20410;-79
2023/08/23 04:56:24;;;;;;;7.60;5.00;;;15.40;99.90;;;;;;5054080;28;20036;-79
2023/08/23 04:58:50;;;;;;;8.35;5.35;;;15.40;99.90;;;;;;5051045;28;20037;-79
2023/08/23 05:01:16;;;;;;;7.80;5.90;;;15.40;99.90;;;;;;5052525;28;20029;-79
2023/08/23 05:03:41;;;;;;;8.00;5.50;;;15.40;99.90;;;;;;5036870;28;20087;-80
2023/08/23 05:06:07;;;;;;;10.32;6.07;;;15.30;99.90;;;;;;5035270;28;20574;-79
2023/08/23 05:08:35;;;;;;;8.32;5.57;;;15.40;99.90;;;;;;5035312;28;20072;-80
2023/08/23 05:11:00;;;;;;;7.60;5.72;;;15.30;99.90;;;;;;5036454;28;20478;-79
2023/08/23 05:13:26;;;;;;;7.93;5.78;;;15.40;99.90;;;;;;5053929;28;20048;-80
2023/08/23 05:15:55;;;;;;;8.25;6.30;;;15.40;99.90;;;;;;5051133;28;20041;-79
2023/08/23 05:18:22;;;;;;;8.48;5.85;;;15.40;99.90;;;;;;5052035;28;20033;-79
2023/08/23 05:20:53;;;;;;;9.48;6.30;;;15.40;99.90;;;;;;5050772;28;20040;-79
2023/08/23 05:23:18;;;;;;;9.02;6.38;;;15.40;99.90;;;;;;5052798;28;20580;-79
2023/08/23 05:25:44;;;;;;;8.73;6.80;;;15.40;99.90;;;;;;5052659;28;20139;-79
2023/08/23 05:28:09;;;;;;;9.10;6.40;;;15.40;99.90;;;;;;5034980;28;20040;-79
2023/08/23 05:30:38;;;;;;;9.00;6.45;;;15.50;99.90;;;;;;5037767;28;20041;-78
2023/08/23 05:33:04;;;;;;;10.57;7.32;;;15.50;99.90;;;;;;5036040;28;20051;-78
2023/08/23 05:35:29;;;;;;;10.40;7.45;;;15.60;99.90;;;;;;5051626;28;20033;-78
2023/08/23 05:37:55;;;;;;;9.35;7.00;;;15.60;99.90;;;;;;5053099;28;20069;-78
2023/08/23 05:40:22;;;;;;;9.32;6.95;;;15.60;99.90;;;;;;5034603;28;20044;-78
2023/08/23 05:42:47;;;;;;;9.60;7.45;;;15.60;99.90;;;;;;5040500;28;20041;-78
2023/08/23 05:45:13;;;;;;;10.10;7.80;;;15.60;99.90;;;;;;5024517;28;20076;-78
2023/08/23 05:47:38;;;;;;;11.10;7.97;;;15.60;99.90;;;;;;5054421;28;20531;-78
2023/08/23 05:50:04;;;;;;;11.02;7.85;;;15.60;99.90;;;;;;5058141;28;20044;-78
2023/08/23 05:52:30;;;;;;;11.25;8.35;;;15.60;99.90;;;;;;5067016;28;20044;-78
2023/08/23 05:54:55;;;;;;;12.10;8.27;;;15.70;99.90;;;;;;5032379;28;20033;-78
2023/08/23 05:57:21;;;;;;;11.60;9.23;;;15.70;99.90;;;;;;5048858;28;20029;-78
2023/08/23 05:59:47;;;;;;;10.98;8.68;;;15.70;99.90;;;;;;5036592;28;20056;-78
2023/08/23 06:02:12;;;;;;;12.48;9.48;;;15.80;99.90;;;;;;5061028;28;20040;-79
2023/08/23 06:04:38;;;;;;;11.27;9.45;;;15.80;99.90;;;;;;5052780;28;20042;-78
2023/08/23 06:07:03;;;;;;;13.30;9.82;;;15.90;99.90;;;;;;5037630;28;20044;-78
2023/08/23 06:09:32;;;;;;;14.18;9.68;;;15.90;99.90;;;;;;5044724;28;20586;-78
2023/08/23 06:12:00;;;;;;;14.05;10.57;;;15.90;99.90;;;;;;5034566;28;20033;-78
2023/08/23 06:14:26;;;;;;;13.38;10.30;;;16.00;99.90;;;;;;5084426;28;20123;-78
2023/08/23 06:16:51;;;;;;;14.30;10.70;;;16.00;99.90;;;;;;5048119;28;20108;-78
2023/08/23 06:19:17;;;;;;;15.10;11.63;;;16.10;99.90;;;;;;5050545;28;20037;-79
2023/08/23 06:21:43;;;;;;;16.35;12.50;;;16.10;99.90;;;;;;5050166;28;20036;-78
2023/08/23 06:24:09;;;;;;;16.05;12.52;;;16.10;99.90;;;;;;5033731;28;20033;-79
2023/08/23 06:26:35;;;;;;;16.42;12.73;;;16.10;99.90;;;;;;5036566;28;20508;-78
2023/08/23 06:29:01;;;;;;;16.55;13.07;;;16.20;99.90;;;;;;5082211;28;20036;-78
2023/08/23 06:31:26;;;;;;;17.65;13.25;;;16.30;99.90;;;;;;5037409;28;20044;-78
2023/08/23 06:33:52;;;;;;;19.17;13.75;;;16.30;99.90;;;;;;5041985;28;20087;-78
2023/08/23 06:36:18;;;;;;;19.25;14.90;;;16.40;99.90;;;;;;5049286;28;20033;-78
2023/08/23 06:38:44;;;;;;;21.38;15.13;;;16.50;99.90;;;;;;5076722;28;20564;-79
2023/08/23 06:41:09;;;;;;;22.35;16.55;;;16.60;99.90;;;;;;5038725;28;20036;-79
2023/08/23 06:43:35;;;;;;;20.50;15.68;;;16.70;99.90;;;;;;5067242;28;20048;-81
2023/08/23 06:46:01;;;;;;;20.55;16.33;;;16.80;99.90;;;;;;5049363;28;20043;-79
2023/08/23 06:48:27;;;;;;;20.17;15.30;;;17.00;99.90;;;;;;5054334;28;20041;-79
2023/08/23 06:50:54;;;;;;;19.98;14.70;;;17.00;99.90;;;;;;5026481;28;20049;-80
2023/08/23 06:53:20;;;;;;;20.00;14.70;;;17.10;99.90;;;;;;5028962;28;20041;-80
2023/08/23 06:55:46;;;;;;;21.08;15.32;;;17.20;99.90;;;;;;5066251;28;20050;-81
2023/08/23 06:58:11;;;;;;;17.48;13.90;;;17.30;99.90;;;;;;5049961;28;20423;-80
2023/08/23 07:00:37;;;;;;;19.48;13.48;;;17.40;99.90;;;;;;5057824;28;20043;-81
2023/08/23 07:03:03;;;;;;;18.77;13.82;;;17.40;99.90;;;;;;5055812;28;20211;-80
2023/08/23 07:05:29;;;;;;;18.48;13.55;;;17.50;99.90;;;;;;5048661;28;20050;-81
2023/08/23 07:07:54;;;;;;;17.90;13.57;;;17.60;99.90;;;;;;5053036;28;20033;-81
2023/08/23 07:10:20;;;;;;;18.35;13.77;;;17.70;99.90;;;;;;5036068;28;20033;-81
2023/08/23 07:12:46;;;;;;;18.95;13.82;;;17.70;99.90;;;;;;5062221;28;20086;-81
2023/08/23 07:15:11;;;;;;;17.83;13.32;;;17.80;99.90;;;;;;5072866;28;20446;-81
2023/08/23 07:17:37;;;;;;;19.83;13.57;;;17.80;99.90;;;;;;5053668;28;20033;-82
2023/08/23 07:20:04;;;;;;;16.45;11.98;;;17.90;99.90;;;;;;5059100;28;20045;-81
2023/08/23 07:22:29;;;;;;;17.30;13.20;;;18.00;99.90;;;;;;5057286;28;20028;-81
2023/08/23 07:24:55;;;;;;;17.05;13.48;;;18.10;99.90;;;;;;5045971;28;20045;-82
2023/08/23 07:27:21;;;;;;;17.25;12.77;;;18.20;99.90;;;;;;5040528;28;20064;-82
2023/08/23 07:29:46;;;;;;;16.30;12.50;;;18.20;99.90;;;;;;5054400;28;20055;-82
2023/08/23 07:32:12;;;;;;;16.83;11.02;;;18.20;99.90;;;;;;5069209;28;20044;-82
2023/08/23 07:34:37;;;;;;;13.55;9.43;;;18.30;99.90;;;;;;5072872;28;20071;-82
2023/08/23 07:37:03;;;;;;;14.27;8.90;;;18.50;99.90;;;;;;5044568;28;20037;-82
2023/08/23 07:39:29;;;;;;;12.35;8.55;;;18.60;99.90;;;;;;5066368;28;20037;-83
2023/08/23 07:41:54;;;;;;;13.30;8.40;;;18.60;99.90;;;;;;5039993;28;20119;-83
2023/08/23 07:44:20;;;;;;;14.52;8.75;;;18.60;99.90;;;;;;5052621;28;20044;-83
2023/08/23 07:46:46;;;;;;;10.88;6.90;;;18.70;99.90;;;;;;5050808;28;20086;-82
2023/08/23 07:49:14;;;;;;;10.20;6.38;;;18.70;99.90;;;;;;5054352;28;20118;-78
2023/08/23 07:51:39;;;;;;;11.50;6.38;;;18.70;99.90;;;;;;5056924;28;20051;-79
2023/08/23 07:54:06;;;;;;;9.30;5.57;;;18.80;99.90;;;;;;5062061;28;20032;-80
2023/08/23 07:56:31;;;;;;;10.05;5.70;;;18.90;99.90;;;;;;5055415;28;20037;-79
2023/08/23 07:58:57;;;;;;;10.45;5.50;;;18.90;99.90;;;;;;5054927;28;20388;-79
2023/08/23 08:01:22;;;;;;;8.98;5.32;;;19.00;99.90;;;;;;5044089;28;20036;-78
2023/08/23 08:03:48;;;;;;;8.57;5.05;;;19.00;99.90;;;;;;5059844;28;20041;-79
2023/08/23 08:06:13;;;;;;;8.70;4.93;;;19.10;99.90;;;;;;5036395;28;20501;-79
2023/08/23 08:08:42;;;;;;;11.05;4.93;;;19.30;99.90;;;;;;5027066;28;20041;-79
2023/08/23 08:11:09;;;;;;;8.25;5.25;;;19.30;99.90;;;;;;5039177;28;20033;-78
2023/08/23 08:13:35;;;;;;;8.57;6.20;;;19.40;99.90;;;;;;5065046;28;20449;-79
2023/08/23 08:16:14;;;;;;;9.30;5.88;;;19.50;99.90;;;;;;5062319;28;20112;-78
2023/08/23 08:18:42;;;;;;;10.07;6.28;;;19.50;99.90;;;;;;5053263;28;20037;-78
2023/08/23 08:21:08;;;;;;;14.13;6.85;;;19.60;99.90;;;;;;5053578;28;20040;-79
2023/08/23 08:23:34;;;;;;;10.10;6.50;;;19.60;99.90;;;;;;5065683;28;20068;-79
2023/08/23 08:26:00;;;;;;;10.13;6.78;;;19.70;99.90;;;;;;5043150;28;20080;-79
2023/08/23 08:28:26;;;;;;;9.30;6.40;;;19.80;99.90;;;;;;5051954;28;20103;-79
2023/08/23 08:30:51;;;;;;;10.85;7.20;;;19.90;99.90;;;;;;5068115;28;20048;-79
2023/08/23 08:33:17;;;;;;;10.27;6.90;;;20.00;99.90;;;;;;5050330;28;20453;-79
2023/08/23 08:35:43;;;;;;;9.95;6.00;;;20.10;99.90;;;;;;5059704;28;20485;-79
2023/08/23 08:38:09;;;;;;;10.35;6.32;;;20.10;99.90;;;;;;5073840;28;20044;-79
2023/08/23 08:40:36;;;;;;;12.70;6.70;;;20.20;99.90;;;;;;5041823;28;20102;-79
2023/08/23 08:43:02;;;;;;;9.65;5.75;;;20.30;99.90;;;;;;5064025;28;20041;-79
2023/08/23 08:45:28;;;;;;;9.65;5.32;;;20.40;99.90;;;;;;5067787;28;20033;-79
2023/08/23 08:47:54;;;;;;;8.85;4.90;;;20.50;99.90;;;;;;5051870;28;20041;-79
2023/08/23 08:50:20;;;;;;;9.48;5.80;;;20.60;99.90;;;;;;5043873;28;20041;-79
2023/08/23 08:52:53;;;;;;;9.98;5.80;;;20.70;99.90;;;;;;5067637;28;20048;-79
2023/08/23 08:55:21;;;;;;;10.15;6.05;;;20.80;99.90;;;;;;5056718;28;20374;-76
2023/08/23 08:57:53;;;;;;;9.68;5.50;;;20.90;99.90;;;;;;5054425;28;20038;-75
2023/08/23 09:00:22;;;;;;;9.45;5.45;;;21.00;99.90;;;;;;5053014;28;20544;-75
2023/08/23 09:02:51;;;;;;;9.00;4.88;;;21.10;99.90;;;;;;5037676;28;20040;-75
2023/08/23 09:05:17;;;;;;;8.27;5.00;;;21.10;99.90;;;;;;5056101;28;20504;-75
2023/08/23 09:07:43;;;;;;;10.07;5.00;;;21.20;99.90;;;;;;5031043;28;20386;-75
2023/08/23 09:10:10;;;;;;;11.25;4.95;;;21.20;99.90;;;;;;5053444;28;20040;-75
2023/08/23 09:12:36;;;;;;;8.13;4.38;;;21.30;99.90;;;;;;5059337;28;20373;-75
2023/08/23 09:15:05;;;;;;;11.07;4.82;;;21.40;99.90;;;;;;5054576;28;20033;-75
2023/08/23 09:17:33;;;;;;;8.20;4.88;;;21.40;99.90;;;;;;5048620;28;20404;-75
2023/08/23 09:19:59;;;;;;;9.07;4.03;;;21.50;99.90;;;;;;5072654;28;20032;-75
2023/08/23 09:22:25;;;;;;;8.38;4.07;;;21.60;99.90;;;;;;5050619;28;20041;-75
2023/08/23 09:24:51;;;;;;;7.93;4.00;;;21.70;99.90;;;;;;5047087;28;20457;-75
2023/08/23 09:27:20;;;;;;;8.13;4.13;;;21.80;99.90;;;;;;5051092;28;20139;-75
2023/08/23 09:29:46;;;;;;;8.93;3.95;;;21.80;99.90;;;;;;5038454;28;20492;-75
2023/08/23 09:32:11;;;;;;;7.38;4.20;;;21.90;99.90;;;;;;5043154;28;20064;-75
2023/08/23 09:34:37;;;;;;;7.70;4.18;;;21.90;99.90;;;;;;5071556;28;20043;-75
2023/08/23 09:37:09;;;;;;;8.10;3.78;;;21.90;99.90;;;;;;5043540;28;20396;-75
2023/08/23 09:39:35;;;;;;;8.13;3.80;;;21.80;99.90;;;;;;5034321;28;20045;-75
2023/08/23 09:42:13;;;;;;;10.13;4.22;;;21.80;99.90;;;;;;5062446;28;20029;-79
2023/08/23 09:44:46;;;;;;;9.52;4.30;;;21.90;99.90;;;;;;5039214;28;20033;-79
2023/08/23 09:47:20;;;;;;;8.77;3.65;;;22.00;99.90;;;;;;5040219;28;20108;-79
2023/08/23 09:49:48;;;;;;;9.98;4.00;;;22.10;99.90;;;;;;5063999;28;20028;-79
2023/08/23 09:52:14;;;;;;;9.32;4.35;;;22.20;99.90;;;;;;5051342;28;20048;-79
2023/08/23 09:54:56;;;;;;;7.70;3.60;;;22.30;99.90;;;;;;5039648;28;20527;-79
2023/08/23 09:57:23;;;;;;;8.60;3.67;;;22.50;99.90;;;;;;5045963;28;20033;-79
2023/08/23 09:59:50;;;;;;;8.32;3.75;;;22.60;99.90;;;;;;5065243;28;20041;-79
2023/08/23 10:02:17;;;;;;;8.95;4.00;;;22.60;99.90;;;;;;5056890;28;20149;-79
2023/08/23 10:04:43;;;;;;;7.93;3.60;;;22.40;99.90;;;;;;5043541;28;20098;-79
2023/08/23 10:07:10;;;;;;;11.43;4.47;;;22.50;99.90;;;;;;5044623;28;20033;-79
2023/08/23 10:09:39;;;;;;;8.65;4.22;;;22.60;99.90;;;;;;5051677;28;20041;-79
2023/08/23 10:12:07;;;;;;;9.43;4.30;;;22.50;99.90;;;;;;5033022;28;20056;-79
2023/08/23 10:14:36;;;;;;;7.70;3.97;;;22.40;99.90;;;;;;5048861;28;20120;-79
2023/08/23 10:17:04;;;;;;;10.25;4.18;;;22.40;99.90;;;;;;5051524;28;20033;-79
2023/08/23 10:19:30;;;;;;;10.07;4.07;;;22.40;99.90;;;;;;5032816;28;20033;-79
2023/08/23 10:21:57;;;;;;;9.07;4.40;;;22.40;99.90;;;;;;5045359;28;20055;-79
2023/08/23 10:24:30;;;;;;;10.55;4.32;;;22.50;99.90;;;;;;5048061;28;20037;-79
2023/08/23 10:26:56;;;;;;;7.60;3.92;;;22.60;99.90;;;;;;5064808;28;20041;-79
2023/08/23 10:29:28;;;;;;;8.35;4.07;;;22.60;99.90;;;;;;5053388;28;20182;-79
2023/08/23 10:31:55;;;;;;;8.68;4.10;;;22.80;99.90;;;;;;5045997;28;20052;-78
2023/08/23 10:34:27;;;;;;;10.70;4.65;;;23.00;99.90;;;;;;5036672;28;20396;-80
2023/08/23 10:36:54;;;;;;;11.40;4.25;;;23.10;99.90;;;;;;5058015;28;20045;-79
2023/08/23 10:39:27;;;;;;;9.80;4.13;;;23.10;99.90;;;;;;5038342;28;20037;-79
2023/08/23 10:41:56;;;;;;;9.32;4.22;;;23.10;99.90;;;;;;5056694;28;20044;-79
2023/08/23 10:44:22;;;;;;;9.57;4.28;;;23.00;99.90;;;;;;5040729;28;20033;-79
2023/08/23 10:46:51;;;;;;;9.15;4.53;;;22.90;99.90;;;;;;5076451;28;20033;-79
2023/08/23 10:49:20;;;;;;;7.95;4.38;;;22.90;99.90;;;;;;5049024;28;20041;-79
2023/08/23 10:51:46;;;;;;;13.95;5.38;;;22.90;99.90;;;;;;5039419;28;20054;-79
2023/08/23 10:54:13;;;;;;;9.43;4.18;;;23.00;99.90;;;;;;5052562;28;20037;-79
2023/08/23 10:56:39;;;;;;;11.18;4.57;;;23.10;99.90;;;;;;5065158;28;20492;-79
2023/08/23 10:59:07;;;;;;;14.35;6.25;;;23.30;99.90;;;;;;5061534;28;20048;-78
2023/08/23 11:01:39;;;;;;;9.63;4.63;;;23.40;99.90;;;;;;5056160;28;20089;-79
2023/08/23 11:04:08;;;;;;;9.73;4.00;;;23.50;99.90;;;;;;5052267;28;20033;-78
2023/08/23 11:06:35;;;;;;;9.05;4.60;;;23.50;99.90;;;;;;5050041;28;20048;-81
2023/08/23 11:09:01;;;;;;;10.88;5.97;;;23.60;99.90;;;;;;5059028;28;20044;-79
2023/08/23 11:11:30;;;;;;;10.23;4.90;;;23.60;99.90;;;;;;5054653;28;20489;-79
2023/08/23 11:13:57;;;;;;;8.82;4.82;;;23.50;99.90;;;;;;5076182;28;20071;-79
2023/08/23 11:16:23;;;;;;;9.00;4.43;;;23.60;99.90;;;;;;5061237;28;20036;-79
2023/08/23 11:18:49;;;;;;;9.73;4.15;;;23.60;99.90;;;;;;5074434;28;20078;-79
2023/08/23 11:21:15;;;;;;;9.50;5.20;;;23.70;99.90;;;;;;5070715;28;20040;-79
2023/08/23 11:23:41;;;;;;;8.98;4.68;;;23.60;99.90;;;;;;5063290;28;20453;-79
2023/08/23 11:26:07;;;;;;;10.48;5.07;;;23.50;99.90;;;;;;5038401;28;20083;-79
2023/08/23 11:28:33;;;;;;;9.15;4.45;;;23.50;99.90;;;;;;5052115;28;20509;-79
2023/08/23 11:30:59;;;;;;;10.25;4.00;;;23.40;99.90;;;;;;5028734;28;20051;-79
2023/08/23 11:33:25;;;;;;;8.30;4.10;;;23.40;99.90;;;;;;5057768;28;20520;-79
2023/08/23 11:35:51;;;;;;;9.82;4.63;;;23.30;99.90;;;;;;5057370;28;20048;-79
2023/08/23 11:38:17;;;;;;;10.23;5.30;;;23.30;99.90;;;;;;5040544;28;20049;-79
2023/08/23 11:40:46;;;;;;;9.55;5.00;;;23.40;99.90;;;;;;5057139;28;20443;-79
2023/08/23 11:43:14;;;;;;;11.77;5.13;;;23.50;99.90;;;;;;5076256;28;20393;-79
2023/08/23 11:45:41;;;;;;;10.10;5.10;;;23.50;99.90;;;;;;5055208;28;20083;-79
2023/08/23 11:48:09;;;;;;;10.32;5.90;;;23.50;99.90;;;;;;5069468;28;20051;-78
2023/08/23 11:50:35;;;;;;;11.52;5.85;;;23.40;99.90;;;;;;5071925;28;20507;-79
2023/08/23 11:53:05;;;;;;;10.18;6.53;;;23.40;99.90;;;;;;5026216;28;20041;-79
2023/08/23 11:55:33;;;;;;;9.55;5.43;;;23.40;99.90;;;;;;5053616;28;20047;-79
2023/08/23 11:57:58;;;;;;;8.93;5.07;;;23.50;99.90;;;;;;5047404;28;20034;-79
2023/08/23 12:00:24;;;;;;;9.65;5.03;;;23.60;99.90;;;;;;5037325;28;20037;-79
2023/08/23 12:02:50;;;;;;;8.63;4.50;;;23.60;99.90;;;;;;5036046;28;20182;-79
2023/08/23 12:05:17;;;;;;;7.70;4.30;;;23.50;99.90;;;;;;5050813;28;20078;-80
2023/08/23 12:07:43;;;;;;;9.52;4.85;;;23.60;99.90;;;;;;5064911;28;20266;-79
2023/08/23 12:10:09;;;;;;;8.77;3.35;;;23.70;99.90;;;;;;5042455;28;20043;-79
2023/08/23 12:12:38;;;;;;;7.07;3.30;;;23.80;99.90;;;;;;5060562;28;20104;-79
2023/08/23 12:15:07;;;;;;;9.13;3.10;;;23.80;99.90;;;;;;5030815;28;20464;-79
2023/08/23 12:17:34;;;;;;;8.02;3.10;;;23.80;99.90;;;;;;5055545;28;20130;-79
2023/08/23 12:19:59;;;;;;;9.18;2.83;;;23.70;99.90;;;;;;5036885;28;20044;-79
2023/08/23 12:22:25;;;;;;;9.07;2.90;;;23.60;99.90;;;;;;5034096;28;20390;-79
2023/08/23 12:24:51;;;;;;;7.45;3.25;;;23.60;99.90;;;;;;5070168;28;20047;-79
2023/08/23 12:27:17;;;;;;;8.88;3.83;;;23.60;99.90;;;;;;5063671;28;20056;-79
2023/08/23 12:29:43;;;;;;;7.97;4.13;;;23.60;99.90;;;;;;5068894;28;20056;-75
2023/08/23 12:32:08;;;;;;;7.88;2.88;;;23.60;99.90;;;;;;5088993;28;20040;-79
2023/08/23 12:34:34;;;;;;;7.25;2.45;;;23.70;99.90;;;;;;5073366;28;20502;-79
2023/08/23 12:37:00;;;;;;;6.38;2.17;;;23.70;99.90;;;;;;5064420;28;20086;-76
2023/08/23 12:39:26;;;;;;;5.88;2.50;;;23.80;99.90;;;;;;5073072;28;20040;-78